sensor_id;sensor_type;location;lat;lon;timestamp;pressure;altitude;pressure_sealevel;temperature;humidity
27358;BME280;14831;50.474;7.616;2022-08-05T00:04:53;97720;;;20.0;99.9
27358;BME280;14831;50.474;7.616;2022-08-05T00:09:53;97710;;;19.9;99.9
27358;BME280;14831;50.474;7.616;2022-08-05T00:14:54;97710;;;19.8;99.9
27358;BME280;14831;50.474;7.616;2022-08-05T00:19:54;97710;;;19.8;99.9
27358;BME280;14831;50.474;7.616;2022-08-05T00:24:54;97690;;;19.8;99.9
27358;BME280;14831;50.474;7.616;2022-08-05T00:29:54;97690;;;19.8;99.9
27358;BME280;14831;50.474;7.616;2022-08-05T00:34:53;97680;;;19.7;99.9
27358;BME280;14831;50.474;7.616;2022-08-05T00:39:53;97670;;;19.7;99.9
27358;BME280;14831;50.474;7.616;2022-08-05T00:44:53;97660;;;19.6;99.9
27358;BME280;14831;50.474;7.616;2022-08-05T00:49:53;97660;;;19.5;99.9
27358;BME280;14831;50.474;7.616;2022-08-05T00:54:53;97650;;;19.5;99.9
27358;BME280;14831;50.474;7.616;2022-08-05T00:59:53;97650;;;19.5;99.9
27358;BME280;14831;50.474;7.616;2022-08-05T01:04:53;97660;;;19.6;99.9
27358;BME280;14831;50.474;7.616;2022-08-05T01:09:54;97690;;;19.6;99.9
27358;BME280;14831;50.474;7.616;2022-08-05T01:14:55;97690;;;19.6;99.9
27358;BME280;14831;50.474;7.616;2022-08-05T01:19:54;97670;;;19.6;99.9
27358;BME280;14831;50.474;7.616;2022-08-05T01:24:58;97680;;;19.6;99.9
27358;BME280;14831;50.474;7.616;2022-08-05T01:29:55;97670;;;19.6;99.9
27358;BME280;14831;50.474;7.616;2022-08-05T01:34:53;97660;;;19.6;99.9
27358;BME280;14831;50.474;7.616;2022-08-05T01:39:53;97670;;;19.5;99.9
27358;BME280;14831;50.474;7.616;2022-08-05T01:44:53;97670;;;19.4;99.9
27358;BME280;14831;50.474;7.616;2022-08-05T01:49:53;97660;;;19.4;99.9
27358;BME280;14831;50.474;7.616;2022-08-05T01:54:54;97640;;;19.3;99.9
27358;BME280;14831;50.474;7.616;2022-08-05T01:59:53;97620;;;19.1;99.9
27358;BME280;14831;50.474;7.616;2022-08-05T02:04:53;97630;;;19.1;99.9
27358;BME280;14831;50.474;7.616;2022-08-05T02:09:53;97620;;;19.1;99.9
27358;BME280;14831;50.474;7.616;2022-08-05T02:14:56;97630;;;19.1;99.9
27358;BME280;14831;50.474;7.616;2022-08-05T02:19:54;97670;;;19.1;99.9
27358;BME280;14831;50.474;7.616;2022-08-05T02:24:59;97690;;;19.1;99.9
27358;BME280;14831;50.474;7.616;2022-08-05T02:29:53;97690;;;19.1;99.9
27358;BME280;14831;50.474;7.616;2022-08-05T02:34:53;97710;;;19.1;99.9
27358;BME280;14831;50.474;7.616;2022-08-05T02:39:53;97720;;;19.1;99.9
27358;BME280;14831;50.474;7.616;2022-08-05T02:44:53;97780;;;19.1;99.9
27358;BME280;14831;50.474;7.616;2022-08-05T02:49:53;97830;;;19.1;99.9
27358;BME280;14831;50.474;7.616;2022-08-05T02:54:53;97860;;;19.1;99.9
27358;BME280;14831;50.474;7.616;2022-08-05T02:59:53;97890;;;19.1;99.9
27358;BME280;14831;50.474;7.616;2022-08-05T03:04:54;97890;;;19.2;99.9
27358;BME280;14831;50.474;7.616;2022-08-05T03:09:53;97880;;;19.2;99.9
27358;BME280;14831;50.474;7.616;2022-08-05T03:14:54;97890;;;19.2;99.9
27358;BME280;14831;50.474;7.616;2022-08-05T03:19:53;97890;;;19.1;99.9
27358;BME280;14831;50.474;7.616;2022-08-05T03:24:54;97890;;;19.1;99.9
27358;BME280;14831;50.474;7.616;2022-08-05T03:29:53;97900;;;19.0;99.9
27358;BME280;14831;50.474;7.616;2022-08-05T03:34:53;97910;;;19.0;99.9
27358;BME280;14831;50.474;7.616;2022-08-05T03:39:54;97910;;;19.1;99.9
27358;BME280;14831;50.474;7.616;2022-08-05T03:44:54;97920;;;19.0;99.9
27358;BME280;14831;50.474;7.616;2022-08-05T03:49:53;97920;;;19.0;99.9
27358;BME280;14831;50.474;7.616;2022-08-05T03:54:56;97910;;;19.0;99.9
27358;BME280;14831;50.474;7.616;2022-08-05T03:59:54;97890;;;18.9;99.9
27358;BME280;14831;50.474;7.616;2022-08-05T04:04:53;97890;;;18.8;99.9
27358;BME280;14831;50.474;7.616;2022-08-05T04:09:54;97880;;;18.6;99.9
27358;BME280;14831;50.474;7.616;2022-08-05T04:14:54;97860;;;18.6;99.9
27358;BME280;14831;50.474;7.616;2022-08-05T04:19:54;97840;;;18.5;99.9
27358;BME280;14831;50.474;7.616;2022-08-05T04:24:54;97810;;;18.5;99.9
27358;BME280;14831;50.474;7.616;2022-08-05T04:29:53;97800;;;18.3;99.9
27358;BME280;14831;50.474;7.616;2022-08-05T04:34:53;97780;;;18.3;99.9
27358;BME280;14831;50.474;7.616;2022-08-05T04:39:53;97770;;;18.2;99.9
27358;BME280;14831;50.474;7.616;2022-08-05T04:44:53;97750;;;18.1;99.9
27358;BME280;14831;50.474;7.616;2022-08-05T04:49:53;97770;;;18.2;99.9
27358;BME280;14831;50.474;7.616;2022-08-05T04:54:53;97770;;;18.2;99.9
27358;BME280;14831;50.474;7.616;2022-08-05T04:59:53;97760;;;18.2;99.9
27358;BME280;14831;50.474;7.616;2022-08-05T05:04:53;97710;;;18.2;99.9
27358;BME280;14831;50.474;7.616;2022-08-05T05:09:53;97720;;;18.2;99.9
27358;BME280;14831;50.474;7.616;2022-08-05T05:14:54;97780;;;18.3;99.9
27358;BME280;14831;50.474;7.616;2022-08-05T05:19:53;97810;;;18.5;99.9
27358;BME280;14831;50.474;7.616;2022-08-05T05:24:53;97820;;;18.5;99.9
27358;BME280;14831;50.474;7.616;2022-08-05T05:29:53;97820;;;18.6;99.9
27358;BME280;14831;50.474;7.616;2022-08-05T05:34:53;97820;;;18.6;99.9
27358;BME280;14831;50.474;7.616;2022-08-05T05:39:53;97820;;;18.6;99.9
27358;BME280;14831;50.474;7.616;2022-08-05T05:44:53;97800;;;18.6;99.9
27358;BME280;14831;50.474;7.616;2022-08-05T05:49:53;97780;;;18.6;99.9
27358;BME280;14831;50.474;7.616;2022-08-05T05:54:53;97790;;;18.7;99.9
27358;BME280;14831;50.474;7.616;2022-08-05T05:59:53;97790;;;18.7;99.9
27358;BME280;14831;50.474;7.616;2022-08-05T06:04:53;97790;;;18.8;99.9
27358;BME280;14831;50.474;7.616;2022-08-05T06:09:53;97770;;;18.8;99.9
27358;BME280;14831;50.474;7.616;2022-08-05T06:14:53;97780;;;19.0;99.9
27358;BME280;14831;50.474;7.616;2022-08-05T06:19:53;97780;;;19.1;99.9
27358;BME280;14831;50.474;7.616;2022-08-05T06:24:53;97810;;;19.1;99.9
27358;BME280;14831;50.474;7.616;2022-08-05T06:29:53;97830;;;19.1;99.9
27358;BME280;14831;50.474;7.616;2022-08-05T06:34:53;97860;;;18.8;99.9
27358;BME280;14831;50.474;7.616;2022-08-05T06:39:53;97840;;;18.8;99.9
27358;BME280;14831;50.474;7.616;2022-08-05T06:44:53;97840;;;18.8;99.9
27358;BME280;14831;50.474;7.616;2022-08-05T06:49:53;97850;;;18.9;99.9
27358;BME280;14831;50.474;7.616;2022-08-05T06:54:53;97860;;;18.9;99.9
27358;BME280;14831;50.474;7.616;2022-08-05T06:59:53;97860;;;18.9;99.9
27358;BME280;14831;50.474;7.616;2022-08-05T07:04:54;97850;;;18.9;99.9
27358;BME280;14831;50.474;7.616;2022-08-05T07:09:53;97870;;;18.9;99.9
27358;BME280;14831;50.474;7.616;2022-08-05T07:14:53;97850;;;18.9;99.9
27358;BME280;14831;50.474;7.616;2022-08-05T07:19:53;97860;;;18.9;99.9
27358;BME280;14831;50.474;7.616;2022-08-05T07:24:53;97860;;;18.9;99.9
27358;BME280;14831;50.474;7.616;2022-08-05T07:29:55;97880;;;19.0;99.9
27358;BME280;14831;50.474;7.616;2022-08-05T07:34:53;97880;;;19.3;99.9
27358;BME280;14831;50.474;7.616;2022-08-05T07:39:53;97890;;;19.5;99.9
27358;BME280;14831;50.474;7.616;2022-08-05T07:44:53;97890;;;19.7;99.9
27358;BME280;14831;50.474;7.616;2022-08-05T07:49:53;97900;;;19.7;99.9
27358;BME280;14831;50.474;7.616;2022-08-05T07:54:53;97920;;;19.7;99.9
27358;BME280;14831;50.474;7.616;2022-08-05T07:59:53;97920;;;19.8;99.9
27358;BME280;14831;50.474;7.616;2022-08-05T08:04:53;97940;;;19.8;99.9
27358;BME280;14831;50.474;7.616;2022-08-05T08:09:53;97960;;;19.7;99.9
27358;BME280;14831;50.474;7.616;2022-08-05T08:14:53;97960;;;19.7;99.9
27358;BME280;14831;50.474;7.616;2022-08-05T08:19:53;97960;;;19.7;99.9
27358;BME280;14831;50.474;7.616;2022-08-05T08:24:53;97970;;;19.6;99.9
27358;BME280;14831;50.474;7.616;2022-08-05T08:29:53;97970;;;19.4;99.9
27358;BME280;14831;50.474;7.616;2022-08-05T08:34:53;97980;;;19.5;99.9
27358;BME280;14831;50.474;7.616;2022-08-05T08:39:53;97980;;;19.4;99.9
27358;BME280;14831;50.474;7.616;2022-08-05T08:44:53;97970;;;19.4;99.9
27358;BME280;14831;50.474;7.616;2022-08-05T08:49:54;97940;;;19.3;99.9
27358;BME280;14831;50.474;7.616;2022-08-05T08:54:53;97930;;;19.6;99.9
27358;BME280;14831;50.474;7.616;2022-08-05T08:59:53;97940;;;19.9;99.9
27358;BME280;14831;50.474;7.616;2022-08-05T09:04:53;97920;;;19.9;99.9
27358;BME280;14831;50.474;7.616;2022-08-05T09:09:53;97940;;;20.1;99.9
27358;BME280;14831;50.474;7.616;2022-08-05T09:14:53;97960;;;20.1;99.9
27358;BME280;14831;50.474;7.616;2022-08-05T09:19:53;97980;;;20.1;99.9
27358;BME280;14831;50.474;7.616;2022-08-05T09:24:56;97990;;;19.8;99.9
27358;BME280;14831;50.474;7.616;2022-08-05T09:29:53;97990;;;19.7;99.9
27358;BME280;14831;50.474;7.616;2022-08-05T09:34:53;97980;;;19.8;99.9
27358;BME280;14831;50.474;7.616;2022-08-05T09:39:53;97950;;;20.0;99.9
27358;BME280;14831;50.474;7.616;2022-08-05T09:44:53;97950;;;20.4;99.9
27358;BME280;14831;50.474;7.616;2022-08-05T09:49:54;97960;;;20.6;99.9
27358;BME280;14831;50.474;7.616;2022-08-05T09:54:54;97970;;;20.2;99.9
27358;BME280;14831;50.474;7.616;2022-08-05T09:59:55;97980;;;20.7;99.9
27358;BME280;14831;50.474;7.616;2022-08-05T10:04:53;97990;;;20.4;99.9
27358;BME280;14831;50.474;7.616;2022-08-05T10:09:53;97990;;;20.3;99.9
27358;BME280;14831;50.474;7.616;2022-08-05T10:14:53;98010;;;20.3;99.9
27358;BME280;14831;50.474;7.616;2022-08-05T10:19:53;98010;;;19.9;99.9
27358;BME280;14831;50.474;7.616;2022-08-05T10:24:53;98020;;;19.8;99.9
27358;BME280;14831;50.474;7.616;2022-08-05T10:29:53;98020;;;19.8;99.9
27358;BME280;14831;50.474;7.616;2022-08-05T10:34:53;98010;;;20.2;99.9
27358;BME280;14831;50.474;7.616;2022-08-05T10:39:53;98010;;;20.7;99.9
27358;BME280;14831;50.474;7.616;2022-08-05T10:44:53;98020;;;20.8;99.9
27358;BME280;14831;50.474;7.616;2022-08-05T10:50:02;98020;;;20.7;99.9
27358;BME280;14831;50.474;7.616;2022-08-05T10:55:01;98020;;;20.7;99.9
27358;BME280;14831;50.474;7.616;2022-08-05T11:00:05;98030;;;20.9;99.9
27358;BME280;14831;50.474;7.616;2022-08-05T11:04:53;98020;;;21.4;99.9
27358;BME280;14831;50.474;7.616;2022-08-05T11:09:53;98030;;;21.3;99.9
27358;BME280;14831;50.474;7.616;2022-08-05T11:15:04;98040;;;21.1;99.9
27358;BME280;14831;50.474;7.616;2022-08-05T11:19:53;98050;;;20.9;99.9
27358;BME280;14831;50.474;7.616;2022-08-05T11:25:25;98050;;;20.9;99.9
27358;BME280;14831;50.474;7.616;2022-08-05T11:29:58;98050;;;20.7;99.9
27358;BME280;14831;50.474;7.616;2022-08-05T11:34:53;98070;;;20.6;99.9
27358;BME280;14831;50.474;7.616;2022-08-05T11:39:53;98080;;;20.1;99.9
27358;BME280;14831;50.474;7.616;2022-08-05T11:44:54;98070;;;19.9;99.9
27358;BME280;14831;50.474;7.616;2022-08-05T11:49:54;98090;;;19.9;99.9
27358;BME280;14831;50.474;7.616;2022-08-05T11:54:53;98100;;;19.2;99.9
27358;BME280;14831;50.474;7.616;2022-08-05T11:59:53;98120;;;19.0;99.9
27358;BME280;14831;50.474;7.616;2022-08-05T12:04:53;98130;;;19.0;99.9
27358;BME280;14831;50.474;7.616;2022-08-05T12:09:53;98130;;;19.0;99.9
27358;BME280;14831;50.474;7.616;2022-08-05T12:14:53;98140;;;19.0;99.9
27358;BME280;14831;50.474;7.616;2022-08-05T12:19:53;98150;;;18.7;99.9
27358;BME280;14831;50.474;7.616;2022-08-05T12:24:53;98150;;;18.4;99.9
27358;BME280;14831;50.474;7.616;2022-08-05T12:29:57;98160;;;18.1;99.9
27358;BME280;14831;50.474;7.616;2022-08-05T12:34:53;98160;;;18.2;99.9
27358;BME280;14831;50.474;7.616;2022-08-05T12:39:55;98180;;;18.6;99.9
27358;BME280;14831;50.474;7.616;2022-08-05T12:44:59;98190;;;17.6;99.9
27358;BME280;14831;50.474;7.616;2022-08-05T12:49:54;98210;;;17.4;99.9
27358;BME280;14831;50.474;7.616;2022-08-05T12:54:53;98220;;;17.1;99.9
27358;BME280;14831;50.474;7.616;2022-08-05T12:59:54;98230;;;16.9;99.9
27358;BME280;14831;50.474;7.616;2022-08-05T13:04:54;98240;;;17.1;99.9
27358;BME280;14831;50.474;7.616;2022-08-05T13:09:54;98240;;;17.6;99.9
27358;BME280;14831;50.474;7.616;2022-08-05T13:14:54;98230;;;17.9;99.9
27358;BME280;14831;50.474;7.616;2022-08-05T13:19:58;98230;;;17.9;99.9
27358;BME280;14831;50.474;7.616;2022-08-05T13:24:53;98230;;;18.6;99.9
27358;BME280;14831;50.474;7.616;2022-08-05T13:29:53;98250;;;18.2;99.9
27358;BME280;14831;50.474;7.616;2022-08-05T13:34:54;98260;;;18.1;99.9
27358;BME280;14831;50.474;7.616;2022-08-05T13:39:53;98260;;;18.3;99.9
27358;BME280;14831;50.474;7.616;2022-08-05T13:44:55;98250;;;18.7;99.9
27358;BME280;14831;50.474;7.616;2022-08-05T13:49:53;98250;;;19.1;99.9
27358;BME280;14831;50.474;7.616;2022-08-05T13:54:54;98240;;;19.1;99.9
27358;BME280;14831;50.474;7.616;2022-08-05T13:59:53;98250;;;19.4;99.9
27358;BME280;14831;50.474;7.616;2022-08-05T14:04:53;98250;;;19.9;99.9
27358;BME280;14831;50.474;7.616;2022-08-05T14:09:53;98250;;;20.0;99.9
27358;BME280;14831;50.474;7.616;2022-08-05T14:14:54;98250;;;19.9;99.9
27358;BME280;14831;50.474;7.616;2022-08-05T14:19:54;98250;;;20.2;99.9
27358;BME280;14831;50.474;7.616;2022-08-05T14:24:53;98250;;;20.5;99.9
27358;BME280;14831;50.474;7.616;2022-08-05T14:29:53;98240;;;20.2;99.9
27358;BME280;14831;50.474;7.616;2022-08-05T14:34:53;98250;;;20.0;99.9
27358;BME280;14831;50.474;7.616;2022-08-05T14:39:53;98250;;;20.0;99.9
27358;BME280;14831;50.474;7.616;2022-08-05T14:44:53;98240;;;20.3;99.9
27358;BME280;14831;50.474;7.616;2022-08-05T14:49:53;98240;;;20.5;99.9
27358;BME280;14831;50.474;7.616;2022-08-05T14:54:53;98240;;;20.7;99.9
27358;BME280;14831;50.474;7.616;2022-08-05T14:59:53;98230;;;20.9;99.9
27358;BME280;14831;50.474;7.616;2022-08-05T15:04:53;98220;;;21.1;99.9
27358;BME280;14831;50.474;7.616;2022-08-05T15:09:53;98230;;;21.1;99.9
27358;BME280;14831;50.474;7.616;2022-08-05T15:14:53;98230;;;20.8;99.5
27358;BME280;14831;50.474;7.616;2022-08-05T15:19:53;98230;;;20.7;99.9
27358;BME280;14831;50.474;7.616;2022-08-05T15:24:53;98240;;;20.7;99.9
27358;BME280;14831;50.474;7.616;2022-08-05T15:29:53;98240;;;20.7;99.9
27358;BME280;14831;50.474;7.616;2022-08-05T15:34:53;98240;;;20.7;99.9
27358;BME280;14831;50.474;7.616;2022-08-05T15:39:53;98240;;;20.8;99.8
27358;BME280;14831;50.474;7.616;2022-08-05T15:44:53;98240;;;20.7;99.2
27358;BME280;14831;50.474;7.616;2022-08-05T15:49:53;98240;;;20.8;99.7
27358;BME280;14831;50.474;7.616;2022-08-05T15:54:53;98240;;;20.9;99.8
27358;BME280;14831;50.474;7.616;2022-08-05T15:59:53;98240;;;20.9;99.8
27358;BME280;14831;50.474;7.616;2022-08-05T16:04:53;98240;;;20.6;99.9
27358;BME280;14831;50.474;7.616;2022-08-05T16:09:53;98250;;;20.4;99.8
27358;BME280;14831;50.474;7.616;2022-08-05T16:14:53;98260;;;20.4;99.9
27358;BME280;14831;50.474;7.616;2022-08-05T16:19:53;98260;;;20.4;99.9
27358;BME280;14831;50.474;7.616;2022-08-05T16:24:53;98260;;;20.3;99.9
27358;BME280;14831;50.474;7.616;2022-08-05T16:29:53;98270;;;20.4;99.9
27358;BME280;14831;50.474;7.616;2022-08-05T16:34:53;98260;;;20.6;99.7
27358;BME280;14831;50.474;7.616;2022-08-05T16:39:53;98260;;;20.8;99.9
27358;BME280;14831;50.474;7.616;2022-08-05T16:44:53;98270;;;20.9;99.9
27358;BME280;14831;50.474;7.616;2022-08-05T16:49:53;98290;;;20.6;99.9
27358;BME280;14831;50.474;7.616;2022-08-05T16:54:53;98300;;;20.0;99.9
27358;BME280;14831;50.474;7.616;2022-08-05T16:59:53;98320;;;19.7;99.9
27358;BME280;14831;50.474;7.616;2022-08-05T17:04:53;98310;;;19.8;99.9
27358;BME280;14831;50.474;7.616;2022-08-05T17:09:53;98310;;;19.7;99.9
27358;BME280;14831;50.474;7.616;2022-08-05T17:14:53;98310;;;19.7;99.9
27358;BME280;14831;50.474;7.616;2022-08-05T17:19:53;98320;;;19.6;99.9
27358;BME280;14831;50.474;7.616;2022-08-05T17:24:53;98330;;;19.4;99.9
27358;BME280;14831;50.474;7.616;2022-08-05T17:29:53;98340;;;19.3;99.9
27358;BME280;14831;50.474;7.616;2022-08-05T17:34:53;98340;;;19.3;99.9
27358;BME280;14831;50.474;7.616;2022-08-05T17:39:53;98350;;;19.3;99.9
27358;BME280;14831;50.474;7.616;2022-08-05T17:44:53;98350;;;19.3;99.9
27358;BME280;14831;50.474;7.616;2022-08-05T17:49:53;98360;;;19.2;99.9
27358;BME280;14831;50.474;7.616;2022-08-05T17:54:53;98360;;;19.2;99.9
27358;BME280;14831;50.474;7.616;2022-08-05T17:59:54;98370;;;19.2;99.9
27358;BME280;14831;50.474;7.616;2022-08-05T18:04:53;98380;;;19.0;99.9
27358;BME280;14831;50.474;7.616;2022-08-05T18:09:53;98380;;;18.9;99.9
27358;BME280;14831;50.474;7.616;2022-08-05T18:14:53;98390;;;18.9;99.9
27358;BME280;14831;50.474;7.616;2022-08-05T18:19:53;98400;;;18.9;99.9
27358;BME280;14831;50.474;7.616;2022-08-05T18:24:53;98410;;;18.8;99.9
27358;BME280;14831;50.474;7.616;2022-08-05T18:29:53;98410;;;18.7;99.9
27358;BME280;14831;50.474;7.616;2022-08-05T18:34:53;98410;;;18.7;99.9
27358;BME280;14831;50.474;7.616;2022-08-05T18:39:53;98420;;;18.6;99.9
27358;BME280;14831;50.474;7.616;2022-08-05T18:44:53;98420;;;18.6;99.9
27358;BME280;14831;50.474;7.616;2022-08-05T18:49:53;98430;;;18.5;99.9
27358;BME280;14831;50.474;7.616;2022-08-05T18:54:53;98420;;;18.5;99.8
27358;BME280;14831;50.474;7.616;2022-08-05T18:59:53;98430;;;18.4;99.8
27358;BME280;14831;50.474;7.616;2022-08-05T19:04:53;98440;;;18.3;99.6
27358;BME280;14831;50.474;7.616;2022-08-05T19:09:53;98440;;;18.1;99.9
27358;BME280;14831;50.474;7.616;2022-08-05T19:14:53;98470;;;18.0;99.9
27358;BME280;14831;50.474;7.616;2022-08-05T19:19:53;98480;;;17.8;99.9
27358;BME280;14831;50.474;7.616;2022-08-05T19:24:53;98490;;;17.7;99.9
27358;BME280;14831;50.474;7.616;2022-08-05T19:29:53;98500;;;17.7;99.9
27358;BME280;14831;50.474;7.616;2022-08-05T19:34:53;98520;;;17.6;99.9
27358;BME280;14831;50.474;7.616;2022-08-05T19:39:53;98520;;;17.5;99.9
27358;BME280;14831;50.474;7.616;2022-08-05T19:44:53;98530;;;17.4;99.9
27358;BME280;14831;50.474;7.616;2022-08-05T19:49:53;98540;;;17.4;99.9
27358;BME280;14831;50.474;7.616;2022-08-05T19:54:53;98540;;;17.3;99.9
27358;BME280;14831;50.474;7.616;2022-08-05T19:59:53;98550;;;17.1;99.9
27358;BME280;14831;50.474;7.616;2022-08-05T20:04:53;98560;;;17.0;99.9
27358;BME280;14831;50.474;7.616;2022-08-05T20:09:53;98560;;;17.0;99.9
27358;BME280;14831;50.474;7.616;2022-08-05T20:14:53;98570;;;17.0;99.9
27358;BME280;14831;50.474;7.616;2022-08-05T20:19:53;98570;;;17.0;99.9
27358;BME280;14831;50.474;7.616;2022-08-05T20:24:53;98570;;;17.0;99.9
27358;BME280;14831;50.474;7.616;2022-08-05T20:29:53;98580;;;16.8;99.9
27358;BME280;14831;50.474;7.616;2022-08-05T20:34:53;98580;;;16.8;99.9
27358;BME280;14831;50.474;7.616;2022-08-05T20:39:53;98590;;;16.7;99.9
27358;BME280;14831;50.474;7.616;2022-08-05T20:44:53;98590;;;16.6;99.9
27358;BME280;14831;50.474;7.616;2022-08-05T20:49:53;98590;;;16.7;99.9
27358;BME280;14831;50.474;7.616;2022-08-05T20:54:53;98610;;;16.6;99.9
27358;BME280;14831;50.474;7.616;2022-08-05T20:59:53;98610;;;16.5;99.9
27358;BME280;14831;50.474;7.616;2022-08-05T21:04:53;98620;;;16.5;99.9
27358;BME280;14831;50.474;7.616;2022-08-05T21:09:53;98620;;;16.5;99.9
27358;BME280;14831;50.474;7.616;2022-08-05T21:14:53;98620;;;16.4;99.9
27358;BME280;14831;50.474;7.616;2022-08-05T21:19:53;98630;;;16.3;99.9
27358;BME280;14831;50.474;7.616;2022-08-05T21:24:53;98650;;;16.2;99.9
27358;BME280;14831;50.474;7.616;2022-08-05T21:29:53;98640;;;16.2;99.9
27358;BME280;14831;50.474;7.616;2022-08-05T21:34:53;98650;;;16.2;99.9
27358;BME280;14831;50.474;7.616;2022-08-05T21:39:53;98650;;;16.1;99.9
27358;BME280;14831;50.474;7.616;2022-08-05T21:44:53;98660;;;16.0;99.9
27358;BME280;14831;50.474;7.616;2022-08-05T21:49:53;98670;;;15.9;99.9
27358;BME280;14831;50.474;7.616;2022-08-05T21:54:53;98670;;;15.8;99.9
27358;BME280;14831;50.474;7.616;2022-08-05T21:59:53;98670;;;15.6;99.9
27358;BME280;14831;50.474;7.616;2022-08-05T22:04:53;98670;;;15.4;99.9
27358;BME280;14831;50.474;7.616;2022-08-05T22:09:53;98680;;;15.3;99.9
27358;BME280;14831;50.474;7.616;2022-08-05T22:14:53;98680;;;15.2;99.9
27358;BME280;14831;50.474;7.616;2022-08-05T22:19:53;98680;;;15.3;99.9
27358;BME280;14831;50.474;7.616;2022-08-05T22:24:53;98680;;;15.2;99.9
27358;BME280;14831;50.474;7.616;2022-08-05T22:29:53;98690;;;15.3;99.9
27358;BME280;14831;50.474;7.616;2022-08-05T22:34:53;98690;;;15.2;99.9
27358;BME280;14831;50.474;7.616;2022-08-05T22:39:53;98690;;;15.2;99.9
27358;BME280;14831;50.474;7.616;2022-08-05T22:44:53;98700;;;15.2;99.9
27358;BME280;14831;50.474;7.616;2022-08-05T22:49:53;98700;;;15.1;99.9
27358;BME280;14831;50.474;7.616;2022-08-05T22:54:53;98700;;;14.9;99.9
27358;BME280;14831;50.474;7.616;2022-08-05T22:59:53;98710;;;14.7;99.9
27358;BME280;14831;50.474;7.616;2022-08-05T23:04:53;98730;;;14.5;99.9
27358;BME280;14831;50.474;7.616;2022-08-05T23:09:53;98730;;;14.4;99.9
27358;BME280;14831;50.474;7.616;2022-08-05T23:14:53;98730;;;14.4;99.9
27358;BME280;14831;50.474;7.616;2022-08-05T23:19:54;98730;;;14.4;99.9
27358;BME280;14831;50.474;7.616;2022-08-05T23:24:54;98740;;;14.4;99.9
27358;BME280;14831;50.474;7.616;2022-08-05T23:29:53;98750;;;14.2;99.9
27358;BME280;14831;50.474;7.616;2022-08-05T23:34:53;98740;;;14.2;99.9
27358;BME280;14831;50.474;7.616;2022-08-05T23:39:53;98740;;;14.3;99.9
27358;BME280;14831;50.474;7.616;2022-08-05T23:44:53;98760;;;14.4;99.9
27358;BME280;14831;50.474;7.616;2022-08-05T23:49:53;98760;;;14.1;99.9
27358;BME280;14831;50.474;7.616;2022-08-05T23:54:54;98770;;;13.8;99.9
27358;BME280;14831;50.474;7.616;2022-08-05T23:59:53;98780;;;13.6;99.9
